MMAS/AGU METAR and TAF weather

Enter ICAO airport designator
Station Type Date Time Source
MMAS METAR 2021/08/05 04:40 UTC NOAA

MMAS 050440Z 13004KT 6SM SCT020 BKN100 BKN200 17/16 A3033 RMK 8/463 HZY


Station Type Date Time Source
MMAS Decoded METAR 2021/08/05 04:40 UTC NOAA

Aguascalientes, Ags., Mexico (MMAS) 21-53N 102-18W
Aug 05, 2021 - 12:40 AM EDT / 2021.08.05 0440 UTC
Wind: from the SE (130 degrees) at 5 MPH (4 KT):0
Visibility: 6 mile(s):0
Sky conditions: mostly cloudy
Temperature: 62 F (17 C)
Dew Point: 60 F (16 C)
Relative Humidity: 93%
Pressure (altimeter): 30.33 in. Hg (1027 hPa)
ob: MMAS 050440Z 13004KT 6SM SCT020 BKN100 BKN200 17/16 A3033 RMK 8/463 HZY
cycle: 4

Station Type Date Time Source
MMAS TAF 2021/08/05 06:07 UTC NOAA

TAF MMAS 050400Z 0506/0606 00000KT 6SM HZ SCT020 BKN250
FM051800 13010KT P6SM SCT015 BKN100 BKN250
TEMPO 0519/0523 BKN015CB

Example: see airport list